NYI weather

Sunyani Airport
Sunyani, Brong-Ahafo Region, Ghana

Public forecast

Using degrees Celsius for public forecast. Weather courtesy of forecast.io.

Current aviation weather report (METAR) for Sunyani Airport

Report is more than 6 hours old.

Retrieved 2010/01/16 10:00 UTC (10 years ago):

DGSN 161000Z 00000KT 8000 HZ FEW014 BKN100 25/23 Q1015 NOSIG

Closest aviation forecast (TAF) to Sunyani Airport

Closest forecast is Kumasi Airport, 58.7 nm (108.7 km) SE. Retrieved 2020/07/12 06:21 UTC (2 hours ago):

TAF DGSI 120500Z 1206/1306 23010KT 9999 BKN016 PROB 1206/1209 7000 BKN009 BKN013 PROB30 TEMPO 1213/1216 8000 -RA BKN010 BECMG 1300/1302 VRB02KT BKN010